sensor_id;sensor_type;location;lat;lon;timestamp;temperature;humidity
13589;DHT22;6865;52.552;13.434;2023-02-15T00:01:43;4.30;99.90
13589;DHT22;6865;52.552;13.434;2023-02-15T00:04:13;4.30;99.90
13589;DHT22;6865;52.552;13.434;2023-02-15T00:06:40;4.20;99.90
13589;DHT22;6865;52.552;13.434;2023-02-15T00:09:07;4.10;99.90
13589;DHT22;6865;52.552;13.434;2023-02-15T00:11:34;4.00;99.90
13589;DHT22;6865;52.552;13.434;2023-02-15T00:14:11;4.00;99.90
13589;DHT22;6865;52.552;13.434;2023-02-15T00:16:39;3.90;99.90
13589;DHT22;6865;52.552;13.434;2023-02-15T00:19:06;3.80;99.90
13589;DHT22;6865;52.552;13.434;2023-02-15T00:21:34;3.80;99.90
13589;DHT22;6865;52.552;13.434;2023-02-15T00:24:02;3.80;99.90
13589;DHT22;6865;52.552;13.434;2023-02-15T00:26:29;3.90;99.90
13589;DHT22;6865;52.552;13.434;2023-02-15T00:28:56;3.80;99.90
13589;DHT22;6865;52.552;13.434;2023-02-15T00:31:25;3.70;99.90
13589;DHT22;6865;52.552;13.434;2023-02-15T00:33:53;3.70;99.90
13589;DHT22;6865;52.552;13.434;2023-02-15T00:36:19;3.70;99.90
13589;DHT22;6865;52.552;13.434;2023-02-15T00:38:47;3.60;99.90
13589;DHT22;6865;52.552;13.434;2023-02-15T00:41:13;3.50;99.90
13589;DHT22;6865;52.552;13.434;2023-02-15T00:43:40;3.40;99.90
13589;DHT22;6865;52.552;13.434;2023-02-15T00:46:06;2.50;99.90
13589;DHT22;6865;52.552;13.434;2023-02-15T00:48:33;3.30;99.90
13589;DHT22;6865;52.552;13.434;2023-02-15T00:51:00;3.20;99.90
13589;DHT22;6865;52.552;13.434;2023-02-15T00:53:28;3.20;99.90
13589;DHT22;6865;52.552;13.434;2023-02-15T00:55:55;3.20;99.90
13589;DHT22;6865;52.552;13.434;2023-02-15T00:58:22;3.20;99.90
13589;DHT22;6865;52.552;13.434;2023-02-15T01:00:49;3.30;99.90
13589;DHT22;6865;52.552;13.434;2023-02-15T01:03:16;3.30;99.90
13589;DHT22;6865;52.552;13.434;2023-02-15T01:05:44;3.40;99.90
13589;DHT22;6865;52.552;13.434;2023-02-15T01:08:10;3.40;99.90
13589;DHT22;6865;52.552;13.434;2023-02-15T01:10:37;3.50;99.90
13589;DHT22;6865;52.552;13.434;2023-02-15T01:13:04;3.50;99.90
13589;DHT22;6865;52.552;13.434;2023-02-15T01:15:31;3.60;99.90
13589;DHT22;6865;52.552;13.434;2023-02-15T01:18:00;3.50;99.90
13589;DHT22;6865;52.552;13.434;2023-02-15T01:20:28;3.50;99.90
13589;DHT22;6865;52.552;13.434;2023-02-15T01:22:56;3.40;99.90
13589;DHT22;6865;52.552;13.434;2023-02-15T01:25:23;3.30;99.90
13589;DHT22;6865;52.552;13.434;2023-02-15T01:27:50;3.20;99.90
13589;DHT22;6865;52.552;13.434;2023-02-15T01:30:17;3.10;99.90
13589;DHT22;6865;52.552;13.434;2023-02-15T01:32:44;3.10;99.90
13589;DHT22;6865;52.552;13.434;2023-02-15T01:35:11;3.10;99.90
13589;DHT22;6865;52.552;13.434;2023-02-15T01:37:37;3.00;99.90
13589;DHT22;6865;52.552;13.434;2023-02-15T01:40:07;3.00;99.90
13589;DHT22;6865;52.552;13.434;2023-02-15T01:42:34;2.90;99.90
13589;DHT22;6865;52.552;13.434;2023-02-15T01:45:04;2.80;99.90
13589;DHT22;6865;52.552;13.434;2023-02-15T01:47:51;2.90;99.90
13589;DHT22;6865;52.552;13.434;2023-02-15T01:55:47;2.90;99.90
13589;DHT22;6865;52.552;13.434;2023-02-15T01:58:15;2.90;99.90
13589;DHT22;6865;52.552;13.434;2023-02-15T02:00:43;2.80;99.90
13589;DHT22;6865;52.552;13.434;2023-02-15T02:03:10;2.70;99.90
13589;DHT22;6865;52.552;13.434;2023-02-15T02:05:38;2.70;99.90
13589;DHT22;6865;52.552;13.434;2023-02-15T02:08:06;2.80;99.90
13589;DHT22;6865;52.552;13.434;2023-02-15T02:10:34;2.80;99.90
13589;DHT22;6865;52.552;13.434;2023-02-15T02:13:04;2.80;99.90
13589;DHT22;6865;52.552;13.434;2023-02-15T02:15:40;2.80;99.90
13589;DHT22;6865;52.552;13.434;2023-02-15T02:21:30;2.80;99.90
13589;DHT22;6865;52.552;13.434;2023-02-15T02:24:34;2.80;99.90
13589;DHT22;6865;52.552;13.434;2023-02-15T02:27:21;2.80;99.90
13589;DHT22;6865;52.552;13.434;2023-02-15T02:33:25;2.60;99.90
13589;DHT22;6865;52.552;13.434;2023-02-15T02:36:14;2.50;99.90
13589;DHT22;6865;52.552;13.434;2023-02-15T02:42:05;2.60;99.90
13589;DHT22;6865;52.552;13.434;2023-02-15T02:44:42;2.60;99.90
13589;DHT22;6865;52.552;13.434;2023-02-15T02:47:24;2.50;99.90
13589;DHT22;6865;52.552;13.434;2023-02-15T02:50:03;2.50;99.90
13589;DHT22;6865;52.552;13.434;2023-02-15T02:52:39;2.50;99.90
13589;DHT22;6865;52.552;13.434;2023-02-15T02:57:40;2.60;99.90
13589;DHT22;6865;52.552;13.434;2023-02-15T03:00:09;2.40;99.90
13589;DHT22;6865;52.552;13.434;2023-02-15T03:02:40;2.40;99.90
13589;DHT22;6865;52.552;13.434;2023-02-15T03:05:13;2.40;99.90
13589;DHT22;6865;52.552;13.434;2023-02-15T03:07:41;2.40;99.90
13589;DHT22;6865;52.552;13.434;2023-02-15T03:10:09;2.40;99.90
13589;DHT22;6865;52.552;13.434;2023-02-15T03:12:39;2.40;99.90
13589;DHT22;6865;52.552;13.434;2023-02-15T03:15:10;2.30;99.90
13589;DHT22;6865;52.552;13.434;2023-02-15T03:17:42;2.30;99.90
13589;DHT22;6865;52.552;13.434;2023-02-15T03:20:14;2.30;99.90
13589;DHT22;6865;52.552;13.434;2023-02-15T03:22:52;2.30;99.90
13589;DHT22;6865;52.552;13.434;2023-02-15T03:25:28;2.40;99.90
13589;DHT22;6865;52.552;13.434;2023-02-15T03:28:02;2.30;99.90
13589;DHT22;6865;52.552;13.434;2023-02-15T03:30:31;2.30;99.90
13589;DHT22;6865;52.552;13.434;2023-02-15T03:33:00;2.30;99.90
13589;DHT22;6865;52.552;13.434;2023-02-15T03:35:48;2.20;99.90
13589;DHT22;6865;52.552;13.434;2023-02-15T03:38:21;2.10;99.90
13589;DHT22;6865;52.552;13.434;2023-02-15T03:40:50;2.10;99.90
13589;DHT22;6865;52.552;13.434;2023-02-15T03:43:53;2.00;99.90
13589;DHT22;6865;52.552;13.434;2023-02-15T03:46:28;1.90;99.90
13589;DHT22;6865;52.552;13.434;2023-02-15T03:49:03;1.90;99.90
13589;DHT22;6865;52.552;13.434;2023-02-15T03:51:34;1.90;99.90
13589;DHT22;6865;52.552;13.434;2023-02-15T03:54:24;1.90;99.90
13589;DHT22;6865;52.552;13.434;2023-02-15T03:57:27;1.90;99.90
13589;DHT22;6865;52.552;13.434;2023-02-15T04:00:22;1.90;99.90
13589;DHT22;6865;52.552;13.434;2023-02-15T04:05:43;1.70;99.90
13589;DHT22;6865;52.552;13.434;2023-02-15T04:08:10;1.70;99.90
13589;DHT22;6865;52.552;13.434;2023-02-15T04:10:37;1.70;99.90
13589;DHT22;6865;52.552;13.434;2023-02-15T04:13:24;1.60;99.90
13589;DHT22;6865;52.552;13.434;2023-02-15T04:15:51;1.60;99.90
13589;DHT22;6865;52.552;13.434;2023-02-15T04:18:38;1.60;99.90
13589;DHT22;6865;52.552;13.434;2023-02-15T04:21:25;1.70;99.90
13589;DHT22;6865;52.552;13.434;2023-02-15T04:24:11;1.60;99.90
13589;DHT22;6865;52.552;13.434;2023-02-15T04:26:57;1.60;99.90
13589;DHT22;6865;52.552;13.434;2023-02-15T04:29:25;1.50;99.90
13589;DHT22;6865;52.552;13.434;2023-02-15T04:31:53;1.60;99.90
13589;DHT22;6865;52.552;13.434;2023-02-15T04:34:20;1.50;99.90
13589;DHT22;6865;52.552;13.434;2023-02-15T04:36:46;1.50;99.90
13589;DHT22;6865;52.552;13.434;2023-02-15T04:39:14;1.50;99.90
13589;DHT22;6865;52.552;13.434;2023-02-15T04:41:41;1.30;99.90
13589;DHT22;6865;52.552;13.434;2023-02-15T04:44:08;1.40;99.90
13589;DHT22;6865;52.552;13.434;2023-02-15T04:46:35;1.40;99.90
13589;DHT22;6865;52.552;13.434;2023-02-15T04:49:02;1.40;99.90
13589;DHT22;6865;52.552;13.434;2023-02-15T04:51:29;1.40;99.90
13589;DHT22;6865;52.552;13.434;2023-02-15T04:53:55;1.30;99.90
13589;DHT22;6865;52.552;13.434;2023-02-15T04:56:23;1.30;99.90
13589;DHT22;6865;52.552;13.434;2023-02-15T04:58:49;1.30;99.90
13589;DHT22;6865;52.552;13.434;2023-02-15T05:01:17;1.60;99.90
13589;DHT22;6865;52.552;13.434;2023-02-15T05:03:43;1.20;99.90
13589;DHT22;6865;52.552;13.434;2023-02-15T05:06:10;1.20;99.90
13589;DHT22;6865;52.552;13.434;2023-02-15T05:08:37;1.20;99.90
13589;DHT22;6865;52.552;13.434;2023-02-15T05:11:03;1.10;99.90
13589;DHT22;6865;52.552;13.434;2023-02-15T05:13:30;1.20;99.90
13589;DHT22;6865;52.552;13.434;2023-02-15T05:15:56;1.40;99.90
13589;DHT22;6865;52.552;13.434;2023-02-15T05:18:23;1.10;99.90
13589;DHT22;6865;52.552;13.434;2023-02-15T05:20:49;0.70;99.90
13589;DHT22;6865;52.552;13.434;2023-02-15T05:23:16;1.00;99.90
13589;DHT22;6865;52.552;13.434;2023-02-15T05:25:50;0.90;99.90
13589;DHT22;6865;52.552;13.434;2023-02-15T05:28:36;0.90;99.90
13589;DHT22;6865;52.552;13.434;2023-02-15T05:31:14;0.90;99.90
13589;DHT22;6865;52.552;13.434;2023-02-15T05:33:41;0.80;99.90
13589;DHT22;6865;52.552;13.434;2023-02-15T05:36:09;0.90;99.90
13589;DHT22;6865;52.552;13.434;2023-02-15T05:38:36;0.80;99.90
13589;DHT22;6865;52.552;13.434;2023-02-15T05:41:08;0.80;99.90
13589;DHT22;6865;52.552;13.434;2023-02-15T05:43:35;0.90;99.90
13589;DHT22;6865;52.552;13.434;2023-02-15T05:46:03;0.90;99.90
13589;DHT22;6865;52.552;13.434;2023-02-15T05:48:31;0.90;99.90
13589;DHT22;6865;52.552;13.434;2023-02-15T05:51:00;0.90;99.90
13589;DHT22;6865;52.552;13.434;2023-02-15T05:53:29;0.90;99.90
13589;DHT22;6865;52.552;13.434;2023-02-15T05:55:56;0.90;99.90
13589;DHT22;6865;52.552;13.434;2023-02-15T05:58:28;1.00;99.90
13589;DHT22;6865;52.552;13.434;2023-02-15T06:00:55;1.00;99.90
13589;DHT22;6865;52.552;13.434;2023-02-15T06:03:22;1.00;99.90
13589;DHT22;6865;52.552;13.434;2023-02-15T06:05:49;1.00;99.90
13589;DHT22;6865;52.552;13.434;2023-02-15T06:08:16;1.00;99.90
13589;DHT22;6865;52.552;13.434;2023-02-15T06:10:43;1.30;99.90
13589;DHT22;6865;52.552;13.434;2023-02-15T06:13:09;1.00;99.90
13589;DHT22;6865;52.552;13.434;2023-02-15T06:15:36;1.00;99.90
13589;DHT22;6865;52.552;13.434;2023-02-15T06:18:03;1.10;99.90
13589;DHT22;6865;52.552;13.434;2023-02-15T06:20:29;1.00;99.90
13589;DHT22;6865;52.552;13.434;2023-02-15T06:22:56;1.00;99.90
13589;DHT22;6865;52.552;13.434;2023-02-15T06:25:22;1.00;99.90
13589;DHT22;6865;52.552;13.434;2023-02-15T06:27:50;1.00;99.90
13589;DHT22;6865;52.552;13.434;2023-02-15T06:30:17;0.90;99.90
13589;DHT22;6865;52.552;13.434;2023-02-15T06:32:44;1.10;99.90
13589;DHT22;6865;52.552;13.434;2023-02-15T06:35:11;1.00;99.90
13589;DHT22;6865;52.552;13.434;2023-02-15T06:37:38;1.10;99.90
13589;DHT22;6865;52.552;13.434;2023-02-15T06:40:05;1.10;99.90
13589;DHT22;6865;52.552;13.434;2023-02-15T06:42:32;1.10;99.90
13589;DHT22;6865;52.552;13.434;2023-02-15T06:44:59;1.00;99.90
13589;DHT22;6865;52.552;13.434;2023-02-15T06:47:26;0.90;99.90
13589;DHT22;6865;52.552;13.434;2023-02-15T06:49:53;0.90;99.90
13589;DHT22;6865;52.552;13.434;2023-02-15T06:52:19;0.90;99.90
13589;DHT22;6865;52.552;13.434;2023-02-15T06:54:46;0.90;99.90
13589;DHT22;6865;52.552;13.434;2023-02-15T06:57:13;1.10;99.90
13589;DHT22;6865;52.552;13.434;2023-02-15T06:59:39;1.10;99.90
13589;DHT22;6865;52.552;13.434;2023-02-15T07:02:06;1.10;99.90
13589;DHT22;6865;52.552;13.434;2023-02-15T07:04:33;1.00;99.90
13589;DHT22;6865;52.552;13.434;2023-02-15T07:06:59;1.10;99.90
13589;DHT22;6865;52.552;13.434;2023-02-15T07:09:26;1.10;99.90
13589;DHT22;6865;52.552;13.434;2023-02-15T07:11:53;1.00;99.90
13589;DHT22;6865;52.552;13.434;2023-02-15T07:14:39;1.00;99.90
13589;DHT22;6865;52.552;13.434;2023-02-15T07:17:06;1.10;99.90
13589;DHT22;6865;52.552;13.434;2023-02-15T07:19:53;0.80;99.90
13589;DHT22;6865;52.552;13.434;2023-02-15T07:22:20;1.20;99.90
13589;DHT22;6865;52.552;13.434;2023-02-15T07:24:47;1.20;99.90
13589;DHT22;6865;52.552;13.434;2023-02-15T07:27:15;1.20;99.90
13589;DHT22;6865;52.552;13.434;2023-02-15T07:29:42;1.20;99.90
13589;DHT22;6865;52.552;13.434;2023-02-15T07:32:08;1.20;99.90
13589;DHT22;6865;52.552;13.434;2023-02-15T07:34:35;1.20;99.90
13589;DHT22;6865;52.552;13.434;2023-02-15T07:37:02;1.10;99.90
13589;DHT22;6865;52.552;13.434;2023-02-15T07:39:28;1.20;99.90
13589;DHT22;6865;52.552;13.434;2023-02-15T07:41:55;1.20;99.90
13589;DHT22;6865;52.552;13.434;2023-02-15T07:44:22;1.30;99.90
13589;DHT22;6865;52.552;13.434;2023-02-15T07:46:48;1.20;99.90
13589;DHT22;6865;52.552;13.434;2023-02-15T07:49:15;1.30;99.90
13589;DHT22;6865;52.552;13.434;2023-02-15T07:51:41;1.40;99.90
13589;DHT22;6865;52.552;13.434;2023-02-15T07:54:08;1.40;99.90
13589;DHT22;6865;52.552;13.434;2023-02-15T07:56:35;1.40;99.90
13589;DHT22;6865;52.552;13.434;2023-02-15T07:59:02;1.40;99.90
13589;DHT22;6865;52.552;13.434;2023-02-15T08:01:33;1.50;99.90
13589;DHT22;6865;52.552;13.434;2023-02-15T08:04:00;1.70;99.90
13589;DHT22;6865;52.552;13.434;2023-02-15T08:06:29;1.60;99.90
13589;DHT22;6865;52.552;13.434;2023-02-15T08:08:56;1.70;99.90
13589;DHT22;6865;52.552;13.434;2023-02-15T08:11:27;1.60;99.90
13589;DHT22;6865;52.552;13.434;2023-02-15T08:16:46;1.70;99.90
13589;DHT22;6865;52.552;13.434;2023-02-15T08:19:28;1.70;99.90
13589;DHT22;6865;52.552;13.434;2023-02-15T08:22:03;1.50;99.90
13589;DHT22;6865;52.552;13.434;2023-02-15T08:24:33;1.50;99.90
13589;DHT22;6865;52.552;13.434;2023-02-15T08:27:00;1.50;99.90
13589;DHT22;6865;52.552;13.434;2023-02-15T08:29:33;1.50;99.90
13589;DHT22;6865;52.552;13.434;2023-02-15T08:32:05;1.50;99.90
13589;DHT22;6865;52.552;13.434;2023-02-15T08:34:35;1.40;99.90
13589;DHT22;6865;52.552;13.434;2023-02-15T08:37:03;1.60;99.90
13589;DHT22;6865;52.552;13.434;2023-02-15T08:39:29;1.60;99.90
13589;DHT22;6865;52.552;13.434;2023-02-15T08:41:56;1.70;99.90
13589;DHT22;6865;52.552;13.434;2023-02-15T08:44:23;1.90;99.90
13589;DHT22;6865;52.552;13.434;2023-02-15T08:46:50;1.90;99.90
13589;DHT22;6865;52.552;13.434;2023-02-15T08:49:19;1.90;99.90
13589;DHT22;6865;52.552;13.434;2023-02-15T08:51:47;2.00;99.90
13589;DHT22;6865;52.552;13.434;2023-02-15T08:54:16;2.00;99.90
13589;DHT22;6865;52.552;13.434;2023-02-15T08:56:44;2.10;99.90
13589;DHT22;6865;52.552;13.434;2023-02-15T08:59:21;2.10;99.90
13589;DHT22;6865;52.552;13.434;2023-02-15T09:01:50;2.00;99.90
13589;DHT22;6865;52.552;13.434;2023-02-15T09:04:17;1.90;99.90
13589;DHT22;6865;52.552;13.434;2023-02-15T09:06:45;2.10;99.90
13589;DHT22;6865;52.552;13.434;2023-02-15T09:09:14;2.30;99.90
13589;DHT22;6865;52.552;13.434;2023-02-15T09:11:43;2.30;99.90
13589;DHT22;6865;52.552;13.434;2023-02-15T09:14:13;2.50;99.90
13589;DHT22;6865;52.552;13.434;2023-02-15T09:16:42;2.60;99.90
13589;DHT22;6865;52.552;13.434;2023-02-15T09:19:08;2.70;99.90
13589;DHT22;6865;52.552;13.434;2023-02-15T09:21:37;2.80;99.90
13589;DHT22;6865;52.552;13.434;2023-02-15T09:24:06;3.70;99.90
13589;DHT22;6865;52.552;13.434;2023-02-15T09:26:35;2.80;99.90
13589;DHT22;6865;52.552;13.434;2023-02-15T09:29:02;2.90;99.90
13589;DHT22;6865;52.552;13.434;2023-02-15T09:31:32;3.00;99.90
13589;DHT22;6865;52.552;13.434;2023-02-15T09:34:01;2.80;99.90
13589;DHT22;6865;52.552;13.434;2023-02-15T09:36:31;3.30;99.90
13589;DHT22;6865;52.552;13.434;2023-02-15T09:48:13;3.30;99.90
13589;DHT22;6865;52.552;13.434;2023-02-15T09:54:12;3.40;99.90
13589;DHT22;6865;52.552;13.434;2023-02-15T09:56:57;3.40;99.90
13589;DHT22;6865;52.552;13.434;2023-02-15T09:59:42;3.40;99.90
13589;DHT22;6865;52.552;13.434;2023-02-15T10:02:27;3.40;99.90
13589;DHT22;6865;52.552;13.434;2023-02-15T10:05:12;3.50;99.90
13589;DHT22;6865;52.552;13.434;2023-02-15T10:08:09;3.60;99.90
13589;DHT22;6865;52.552;13.434;2023-02-15T10:11:03;3.50;99.90
13589;DHT22;6865;52.552;13.434;2023-02-15T10:14:10;3.70;99.90
13589;DHT22;6865;52.552;13.434;2023-02-15T10:19:53;3.70;99.90
13589;DHT22;6865;52.552;13.434;2023-02-15T10:25:49;3.90;99.90
13589;DHT22;6865;52.552;13.434;2023-02-15T10:28:20;3.80;99.90
13589;DHT22;6865;52.552;13.434;2023-02-15T10:30:51;3.90;99.90
13589;DHT22;6865;52.552;13.434;2023-02-15T10:33:41;4.00;99.90
13589;DHT22;6865;52.552;13.434;2023-02-15T10:39:28;4.00;99.90
13589;DHT22;6865;52.552;13.434;2023-02-15T10:45:07;4.10;99.90
13589;DHT22;6865;52.552;13.434;2023-02-15T10:48:04;4.30;99.90
13589;DHT22;6865;52.552;13.434;2023-02-15T10:51:08;4.30;99.90
13589;DHT22;6865;52.552;13.434;2023-02-15T10:53:51;4.40;99.90
13589;DHT22;6865;52.552;13.434;2023-02-15T10:56:24;4.50;99.90
13589;DHT22;6865;52.552;13.434;2023-02-15T10:59:16;4.60;99.90
13589;DHT22;6865;52.552;13.434;2023-02-15T11:02:00;4.80;99.90
13589;DHT22;6865;52.552;13.434;2023-02-15T11:07:17;5.00;99.90
13589;DHT22;6865;52.552;13.434;2023-02-15T11:09:48;5.10;99.90
13589;DHT22;6865;52.552;13.434;2023-02-15T11:12:20;5.20;99.90
13589;DHT22;6865;52.552;13.434;2023-02-15T11:15:00;5.20;99.90
13589;DHT22;6865;52.552;13.434;2023-02-15T11:17:39;5.20;99.90
13589;DHT22;6865;52.552;13.434;2023-02-15T11:20:23;5.20;99.90
13589;DHT22;6865;52.552;13.434;2023-02-15T11:22:51;5.30;99.90
13589;DHT22;6865;52.552;13.434;2023-02-15T11:25:30;5.40;99.90
13589;DHT22;6865;52.552;13.434;2023-02-15T11:27:57;5.40;99.90
13589;DHT22;6865;52.552;13.434;2023-02-15T11:30:39;5.50;99.90
13589;DHT22;6865;52.552;13.434;2023-02-15T11:33:17;5.60;99.90
13589;DHT22;6865;52.552;13.434;2023-02-15T11:35:53;5.70;99.90
13589;DHT22;6865;52.552;13.434;2023-02-15T11:38:23;5.80;99.90
13589;DHT22;6865;52.552;13.434;2023-02-15T11:40:54;6.00;99.90
13589;DHT22;6865;52.552;13.434;2023-02-15T11:43:35;6.00;99.90
13589;DHT22;6865;52.552;13.434;2023-02-15T11:46:03;6.10;99.90
13589;DHT22;6865;52.552;13.434;2023-02-15T11:48:31;6.20;99.90
13589;DHT22;6865;52.552;13.434;2023-02-15T11:50:59;6.30;99.90
13589;DHT22;6865;52.552;13.434;2023-02-15T11:53:31;6.30;99.90
13589;DHT22;6865;52.552;13.434;2023-02-15T11:55:58;6.40;99.90
13589;DHT22;6865;52.552;13.434;2023-02-15T11:58:47;6.50;99.90
13589;DHT22;6865;52.552;13.434;2023-02-15T12:01:28;6.40;99.90
13589;DHT22;6865;52.552;13.434;2023-02-15T12:07:19;6.60;99.90
13589;DHT22;6865;52.552;13.434;2023-02-15T12:10:28;6.70;99.90
13589;DHT22;6865;52.552;13.434;2023-02-15T12:13:12;6.90;99.90
13589;DHT22;6865;52.552;13.434;2023-02-15T12:15:45;6.90;99.90
13589;DHT22;6865;52.552;13.434;2023-02-15T12:18:21;6.90;99.90
13589;DHT22;6865;52.552;13.434;2023-02-15T12:20:49;7.00;99.90
13589;DHT22;6865;52.552;13.434;2023-02-15T12:23:17;7.00;99.90
13589;DHT22;6865;52.552;13.434;2023-02-15T12:25:55;7.10;99.90
13589;DHT22;6865;52.552;13.434;2023-02-15T12:30:53;7.20;99.90
13589;DHT22;6865;52.552;13.434;2023-02-15T12:33:26;7.30;99.90
13589;DHT22;6865;52.552;13.434;2023-02-15T12:36:01;7.40;99.90
13589;DHT22;6865;52.552;13.434;2023-02-15T12:38:28;7.50;99.90
13589;DHT22;6865;52.552;13.434;2023-02-15T12:41:36;7.60;99.90
13589;DHT22;6865;52.552;13.434;2023-02-15T12:46:30;7.80;99.90
13589;DHT22;6865;52.552;13.434;2023-02-15T12:49:18;7.80;99.90
13589;DHT22;6865;52.552;13.434;2023-02-15T12:51:50;7.80;99.90
13589;DHT22;6865;52.552;13.434;2023-02-15T12:54:30;7.80;99.90
13589;DHT22;6865;52.552;13.434;2023-02-15T12:56:58;7.90;99.90
13589;DHT22;6865;52.552;13.434;2023-02-15T12:59:24;8.00;99.90
13589;DHT22;6865;52.552;13.434;2023-02-15T13:01:55;8.10;99.90
13589;DHT22;6865;52.552;13.434;2023-02-15T13:04:28;8.10;99.90
13589;DHT22;6865;52.552;13.434;2023-02-15T13:06:58;8.10;99.90
13589;DHT22;6865;52.552;13.434;2023-02-15T13:09:38;8.20;99.90
13589;DHT22;6865;52.552;13.434;2023-02-15T13:12:25;8.30;99.90
13589;DHT22;6865;52.552;13.434;2023-02-15T13:14:57;8.40;99.90
13589;DHT22;6865;52.552;13.434;2023-02-15T13:17:30;8.40;99.90
13589;DHT22;6865;52.552;13.434;2023-02-15T13:20:02;8.50;99.90
13589;DHT22;6865;52.552;13.434;2023-02-15T13:22:38;8.60;99.90
13589;DHT22;6865;52.552;13.434;2023-02-15T13:25:19;8.60;99.90
13589;DHT22;6865;52.552;13.434;2023-02-15T13:27:50;8.70;99.90
13589;DHT22;6865;52.552;13.434;2023-02-15T13:32:57;8.70;99.90
13589;DHT22;6865;52.552;13.434;2023-02-15T13:35:25;8.40;99.90
13589;DHT22;6865;52.552;13.434;2023-02-15T13:38:14;8.70;99.90
13589;DHT22;6865;52.552;13.434;2023-02-15T13:40:58;8.70;99.90
13589;DHT22;6865;52.552;13.434;2023-02-15T13:43:52;8.70;99.90
13589;DHT22;6865;52.552;13.434;2023-02-15T13:46:51;8.70;99.90
13589;DHT22;6865;52.552;13.434;2023-02-15T13:49:47;8.70;99.90
13589;DHT22;6865;52.552;13.434;2023-02-15T13:52:24;8.70;99.90
13589;DHT22;6865;52.552;13.434;2023-02-15T13:55:08;8.80;99.90
13589;DHT22;6865;52.552;13.434;2023-02-15T13:58:02;8.90;99.90
13589;DHT22;6865;52.552;13.434;2023-02-15T14:06:11;8.90;99.90
13589;DHT22;6865;52.552;13.434;2023-02-15T14:09:03;8.90;99.90
13589;DHT22;6865;52.552;13.434;2023-02-15T14:11:56;8.90;99.90
13589;DHT22;6865;52.552;13.434;2023-02-15T14:14:37;8.90;99.90
13589;DHT22;6865;52.552;13.434;2023-02-15T14:17:19;9.00;99.90
13589;DHT22;6865;52.552;13.434;2023-02-15T14:22:54;9.00;99.90
13589;DHT22;6865;52.552;13.434;2023-02-15T14:25:33;9.00;99.90
13589;DHT22;6865;52.552;13.434;2023-02-15T14:28:21;9.10;99.90
13589;DHT22;6865;52.552;13.434;2023-02-15T14:30:51;9.10;99.90
13589;DHT22;6865;52.552;13.434;2023-02-15T14:33:38;9.20;99.90
13589;DHT22;6865;52.552;13.434;2023-02-15T14:36:14;9.20;99.90
13589;DHT22;6865;52.552;13.434;2023-02-15T14:41:50;9.20;99.90
13589;DHT22;6865;52.552;13.434;2023-02-15T14:44:33;9.20;99.90
13589;DHT22;6865;52.552;13.434;2023-02-15T14:47:18;9.20;99.90
13589;DHT22;6865;52.552;13.434;2023-02-15T14:49:45;9.20;99.90
13589;DHT22;6865;52.552;13.434;2023-02-15T14:52:13;9.20;99.90
13589;DHT22;6865;52.552;13.434;2023-02-15T15:05:22;9.20;99.90
13589;DHT22;6865;52.552;13.434;2023-02-15T15:08:19;9.20;99.90
13589;DHT22;6865;52.552;13.434;2023-02-15T15:14:13;9.00;99.90
13589;DHT22;6865;52.552;13.434;2023-02-15T15:16:58;9.00;99.90
13589;DHT22;6865;52.552;13.434;2023-02-15T15:22:20;8.90;99.90
13589;DHT22;6865;52.552;13.434;2023-02-15T15:24:58;8.80;99.90
13589;DHT22;6865;52.552;13.434;2023-02-15T15:27:44;8.70;99.90
13589;DHT22;6865;52.552;13.434;2023-02-15T15:41:48;8.50;99.90
13589;DHT22;6865;52.552;13.434;2023-02-15T15:47:28;8.30;99.90
13589;DHT22;6865;52.552;13.434;2023-02-15T15:49:59;8.30;99.90
13589;DHT22;6865;52.552;13.434;2023-02-15T15:52:27;8.40;99.90
13589;DHT22;6865;52.552;13.434;2023-02-15T15:54:57;8.40;99.90
13589;DHT22;6865;52.552;13.434;2023-02-15T15:57:29;8.50;99.90
13589;DHT22;6865;52.552;13.434;2023-02-15T15:59:57;8.60;99.90
13589;DHT22;6865;52.552;13.434;2023-02-15T16:02:27;8.30;99.90
13589;DHT22;6865;52.552;13.434;2023-02-15T16:04:54;8.50;99.90
13589;DHT22;6865;52.552;13.434;2023-02-15T16:07:25;8.50;99.90
13589;DHT22;6865;52.552;13.434;2023-02-15T16:09:57;8.30;99.90
13589;DHT22;6865;52.552;13.434;2023-02-15T16:12:27;8.20;99.90
13589;DHT22;6865;52.552;13.434;2023-02-15T16:14:55;8.10;99.90
13589;DHT22;6865;52.552;13.434;2023-02-15T16:17:26;8.10;99.90
13589;DHT22;6865;52.552;13.434;2023-02-15T16:20:01;8.00;99.90
13589;DHT22;6865;52.552;13.434;2023-02-15T16:22:29;7.90;99.90
13589;DHT22;6865;52.552;13.434;2023-02-15T16:25:07;7.90;99.90
13589;DHT22;6865;52.552;13.434;2023-02-15T16:27:42;7.90;99.90
13589;DHT22;6865;52.552;13.434;2023-02-15T16:30:25;7.80;99.90
13589;DHT22;6865;52.552;13.434;2023-02-15T16:33:11;7.80;99.90
13589;DHT22;6865;52.552;13.434;2023-02-15T16:35:41;7.80;99.90
13589;DHT22;6865;52.552;13.434;2023-02-15T16:38:11;7.60;99.90
13589;DHT22;6865;52.552;13.434;2023-02-15T16:40:53;7.40;99.90
13589;DHT22;6865;52.552;13.434;2023-02-15T16:43:26;7.20;99.90
13589;DHT22;6865;52.552;13.434;2023-02-15T16:46:03;7.30;99.90
13589;DHT22;6865;52.552;13.434;2023-02-15T16:48:32;7.30;99.90
13589;DHT22;6865;52.552;13.434;2023-02-15T16:51:00;7.40;99.90
13589;DHT22;6865;52.552;13.434;2023-02-15T16:53:28;7.10;99.90
13589;DHT22;6865;52.552;13.434;2023-02-15T16:55:57;6.90;99.90
13589;DHT22;6865;52.552;13.434;2023-02-15T16:58:44;6.80;99.90
13589;DHT22;6865;52.552;13.434;2023-02-15T17:01:13;6.70;99.90
13589;DHT22;6865;52.552;13.434;2023-02-15T17:03:41;6.50;99.90
13589;DHT22;6865;52.552;13.434;2023-02-15T17:06:23;6.50;99.90
13589;DHT22;6865;52.552;13.434;2023-02-15T17:08:52;6.40;99.90
13589;DHT22;6865;52.552;13.434;2023-02-15T17:11:34;6.30;99.90
13589;DHT22;6865;52.552;13.434;2023-02-15T17:16:33;6.70;99.90
13589;DHT22;6865;52.552;13.434;2023-02-15T17:19:07;6.40;99.90
13589;DHT22;6865;52.552;13.434;2023-02-15T17:21:42;6.60;99.90
13589;DHT22;6865;52.552;13.434;2023-02-15T17:24:33;6.70;99.90
13589;DHT22;6865;52.552;13.434;2023-02-15T17:27:05;6.50;99.90
13589;DHT22;6865;52.552;13.434;2023-02-15T17:29:37;6.40;99.90
13589;DHT22;6865;52.552;13.434;2023-02-15T17:32:17;6.30;99.90
13589;DHT22;6865;52.552;13.434;2023-02-15T17:34:51;6.10;99.90
13589;DHT22;6865;52.552;13.434;2023-02-15T17:40:22;5.90;99.90
13589;DHT22;6865;52.552;13.434;2023-02-15T17:42:48;5.90;99.90
13589;DHT22;6865;52.552;13.434;2023-02-15T17:45:15;6.00;99.90
13589;DHT22;6865;52.552;13.434;2023-02-15T17:47:45;5.90;99.90
13589;DHT22;6865;52.552;13.434;2023-02-15T17:50:24;6.00;99.90
13589;DHT22;6865;52.552;13.434;2023-02-15T17:52:53;6.20;99.90
13589;DHT22;6865;52.552;13.434;2023-02-15T17:55:44;5.90;99.90
13589;DHT22;6865;52.552;13.434;2023-02-15T17:58:13;5.80;99.90
13589;DHT22;6865;52.552;13.434;2023-02-15T18:00:43;5.90;99.90
13589;DHT22;6865;52.552;13.434;2023-02-15T18:03:47;5.80;99.90
13589;DHT22;6865;52.552;13.434;2023-02-15T18:06:38;5.60;99.90
13589;DHT22;6865;52.552;13.434;2023-02-15T18:09:25;5.50;99.90
13589;DHT22;6865;52.552;13.434;2023-02-15T18:12:31;5.40;99.90
13589;DHT22;6865;52.552;13.434;2023-02-15T18:14:59;5.30;99.90